sensor_id;sensor_type;location;lat;lon;timestamp;P1;durP1;ratioP1;P2;durP2;ratioP2
21675;SDS011;10999;51.332;9.458;2023-04-24T00:01:32;2.40;;;0.80;;
21675;SDS011;10999;51.332;9.458;2023-04-24T00:04:00;3.03;;;0.95;;
21675;SDS011;10999;51.332;9.458;2023-04-24T00:06:28;2.50;;;0.80;;
21675;SDS011;10999;51.332;9.458;2023-04-24T00:09:00;1.48;;;0.73;;
21675;SDS011;10999;51.332;9.458;2023-04-24T00:11:27;2.67;;;0.90;;
21675;SDS011;10999;51.332;9.458;2023-04-24T00:13:55;2.25;;;0.80;;
21675;SDS011;10999;51.332;9.458;2023-04-24T00:16:22;1.77;;;1.00;;
21675;SDS011;10999;51.332;9.458;2023-04-24T00:18:49;2.08;;;0.80;;
21675;SDS011;10999;51.332;9.458;2023-04-24T00:21:18;1.73;;;0.68;;
21675;SDS011;10999;51.332;9.458;2023-04-24T00:23:45;2.38;;;0.90;;
21675;SDS011;10999;51.332;9.458;2023-04-24T00:26:13;2.45;;;0.90;;
21675;SDS011;10999;51.332;9.458;2023-04-24T00:28:39;4.00;;;1.10;;
21675;SDS011;10999;51.332;9.458;2023-04-24T00:31:06;2.50;;;0.90;;
21675;SDS011;10999;51.332;9.458;2023-04-24T00:33:33;2.67;;;0.98;;
21675;SDS011;10999;51.332;9.458;2023-04-24T00:35:59;3.88;;;0.85;;
21675;SDS011;10999;51.332;9.458;2023-04-24T00:38:26;2.72;;;0.75;;
21675;SDS011;10999;51.332;9.458;2023-04-24T00:40:53;1.45;;;0.70;;
21675;SDS011;10999;51.332;9.458;2023-04-24T00:43:20;5.32;;;1.20;;
21675;SDS011;10999;51.332;9.458;2023-04-24T00:45:47;2.70;;;0.80;;
21675;SDS011;10999;51.332;9.458;2023-04-24T00:48:14;2.25;;;0.60;;
21675;SDS011;10999;51.332;9.458;2023-04-24T00:50:41;2.45;;;1.10;;
21675;SDS011;10999;51.332;9.458;2023-04-24T00:53:08;3.58;;;1.10;;
21675;SDS011;10999;51.332;9.458;2023-04-24T00:55:34;2.08;;;0.82;;
21675;SDS011;10999;51.332;9.458;2023-04-24T00:58:03;2.63;;;1.00;;
21675;SDS011;10999;51.332;9.458;2023-04-24T01:00:30;2.42;;;1.02;;
21675;SDS011;10999;51.332;9.458;2023-04-24T01:02:58;2.53;;;0.90;;
21675;SDS011;10999;51.332;9.458;2023-04-24T01:05:28;2.60;;;0.80;;
21675;SDS011;10999;51.332;9.458;2023-04-24T01:07:54;2.00;;;1.00;;
21675;SDS011;10999;51.332;9.458;2023-04-24T01:10:22;2.20;;;0.95;;
21675;SDS011;10999;51.332;9.458;2023-04-24T01:12:50;2.60;;;0.90;;
21675;SDS011;10999;51.332;9.458;2023-04-24T01:15:17;4.47;;;0.90;;
21675;SDS011;10999;51.332;9.458;2023-04-24T01:17:44;3.38;;;0.85;;
21675;SDS011;10999;51.332;9.458;2023-04-24T01:20:11;2.60;;;0.95;;
21675;SDS011;10999;51.332;9.458;2023-04-24T01:22:38;2.05;;;0.90;;
21675;SDS011;10999;51.332;9.458;2023-04-24T01:25:05;2.83;;;0.90;;
21675;SDS011;10999;51.332;9.458;2023-04-24T01:27:32;2.97;;;0.80;;
21675;SDS011;10999;51.332;9.458;2023-04-24T01:29:59;3.50;;;0.80;;
21675;SDS011;10999;51.332;9.458;2023-04-24T01:32:25;1.60;;;0.70;;
21675;SDS011;10999;51.332;9.458;2023-04-24T01:34:52;2.58;;;0.98;;
21675;SDS011;10999;51.332;9.458;2023-04-24T01:37:20;2.08;;;0.82;;
21675;SDS011;10999;51.332;9.458;2023-04-24T01:39:46;2.53;;;1.02;;
21675;SDS011;10999;51.332;9.458;2023-04-24T01:42:13;2.75;;;1.20;;
21675;SDS011;10999;51.332;9.458;2023-04-24T01:44:40;2.95;;;0.90;;
21675;SDS011;10999;51.332;9.458;2023-04-24T01:47:08;1.67;;;0.88;;
21675;SDS011;10999;51.332;9.458;2023-04-24T01:49:35;2.25;;;0.75;;
21675;SDS011;10999;51.332;9.458;2023-04-24T01:52:03;4.28;;;1.20;;
21675;SDS011;10999;51.332;9.458;2023-04-24T01:54:29;4.47;;;1.08;;
21675;SDS011;10999;51.332;9.458;2023-04-24T01:56:56;2.88;;;0.95;;
21675;SDS011;10999;51.332;9.458;2023-04-24T01:59:23;3.35;;;1.27;;
21675;SDS011;10999;51.332;9.458;2023-04-24T02:01:52;2.85;;;1.00;;
21675;SDS011;10999;51.332;9.458;2023-04-24T02:04:18;1.45;;;0.80;;
21675;SDS011;10999;51.332;9.458;2023-04-24T02:06:45;2.30;;;0.77;;
21675;SDS011;10999;51.332;9.458;2023-04-24T02:09:12;3.28;;;1.10;;
21675;SDS011;10999;51.332;9.458;2023-04-24T02:11:39;1.80;;;0.90;;
21675;SDS011;10999;51.332;9.458;2023-04-24T02:14:05;4.25;;;1.10;;
21675;SDS011;10999;51.332;9.458;2023-04-24T02:16:32;5.15;;;1.30;;
21675;SDS011;10999;51.332;9.458;2023-04-24T02:18:59;4.05;;;1.25;;
21675;SDS011;10999;51.332;9.458;2023-04-24T02:21:26;4.47;;;1.20;;
21675;SDS011;10999;51.332;9.458;2023-04-24T02:23:54;4.07;;;1.20;;
21675;SDS011;10999;51.332;9.458;2023-04-24T02:26:21;2.80;;;1.45;;
21675;SDS011;10999;51.332;9.458;2023-04-24T02:28:47;4.60;;;1.35;;
21675;SDS011;10999;51.332;9.458;2023-04-24T02:31:14;3.00;;;1.20;;
21675;SDS011;10999;51.332;9.458;2023-04-24T02:33:41;4.45;;;1.20;;
21675;SDS011;10999;51.332;9.458;2023-04-24T02:36:07;3.20;;;1.20;;
21675;SDS011;10999;51.332;9.458;2023-04-24T02:38:34;2.63;;;1.20;;
21675;SDS011;10999;51.332;9.458;2023-04-24T02:41:01;4.25;;;1.50;;
21675;SDS011;10999;51.332;9.458;2023-04-24T02:43:30;3.05;;;1.27;;
21675;SDS011;10999;51.332;9.458;2023-04-24T02:45:56;2.55;;;1.13;;
21675;SDS011;10999;51.332;9.458;2023-04-24T02:48:23;4.55;;;1.48;;
21675;SDS011;10999;51.332;9.458;2023-04-24T02:50:50;3.53;;;1.20;;
21675;SDS011;10999;51.332;9.458;2023-04-24T02:53:17;2.83;;;1.08;;
21675;SDS011;10999;51.332;9.458;2023-04-24T02:55:44;2.92;;;1.10;;
21675;SDS011;10999;51.332;9.458;2023-04-24T02:58:12;4.10;;;1.20;;
21675;SDS011;10999;51.332;9.458;2023-04-24T03:00:39;3.17;;;0.98;;
21675;SDS011;10999;51.332;9.458;2023-04-24T03:03:06;2.92;;;1.13;;
21675;SDS011;10999;51.332;9.458;2023-04-24T03:05:33;2.50;;;1.00;;
21675;SDS011;10999;51.332;9.458;2023-04-24T03:08:00;3.70;;;1.20;;
21675;SDS011;10999;51.332;9.458;2023-04-24T03:10:26;2.85;;;1.13;;
21675;SDS011;10999;51.332;9.458;2023-04-24T03:12:53;3.50;;;1.20;;
21675;SDS011;10999;51.332;9.458;2023-04-24T03:15:21;2.70;;;1.15;;
21675;SDS011;10999;51.332;9.458;2023-04-24T03:17:48;3.63;;;1.40;;
21675;SDS011;10999;51.332;9.458;2023-04-24T03:20:14;3.75;;;1.08;;
21675;SDS011;10999;51.332;9.458;2023-04-24T03:22:42;3.53;;;1.05;;
21675;SDS011;10999;51.332;9.458;2023-04-24T03:25:08;4.90;;;1.38;;
21675;SDS011;10999;51.332;9.458;2023-04-24T03:27:35;3.42;;;1.40;;
21675;SDS011;10999;51.332;9.458;2023-04-24T03:30:03;2.45;;;1.05;;
21675;SDS011;10999;51.332;9.458;2023-04-24T03:32:30;5.20;;;1.48;;
21675;SDS011;10999;51.332;9.458;2023-04-24T03:34:58;3.55;;;1.15;;
21675;SDS011;10999;51.332;9.458;2023-04-24T03:37:25;3.70;;;1.10;;
21675;SDS011;10999;51.332;9.458;2023-04-24T03:39:52;2.25;;;1.20;;
21675;SDS011;10999;51.332;9.458;2023-04-24T03:42:19;3.10;;;1.20;;
21675;SDS011;10999;51.332;9.458;2023-04-24T03:44:45;3.85;;;1.30;;
21675;SDS011;10999;51.332;9.458;2023-04-24T03:47:12;2.65;;;1.27;;
21675;SDS011;10999;51.332;9.458;2023-04-24T03:49:38;2.67;;;1.15;;
21675;SDS011;10999;51.332;9.458;2023-04-24T03:52:05;3.58;;;1.58;;
21675;SDS011;10999;51.332;9.458;2023-04-24T03:54:32;3.65;;;1.60;;
21675;SDS011;10999;51.332;9.458;2023-04-24T03:56:59;2.10;;;1.00;;
21675;SDS011;10999;51.332;9.458;2023-04-24T03:59:26;3.75;;;1.20;;
21675;SDS011;10999;51.332;9.458;2023-04-24T04:01:53;4.38;;;1.55;;
21675;SDS011;10999;51.332;9.458;2023-04-24T04:04:19;2.92;;;1.20;;
21675;SDS011;10999;51.332;9.458;2023-04-24T04:06:46;2.42;;;1.20;;
21675;SDS011;10999;51.332;9.458;2023-04-24T04:09:13;3.55;;;1.23;;
21675;SDS011;10999;51.332;9.458;2023-04-24T04:11:40;3.65;;;1.27;;
21675;SDS011;10999;51.332;9.458;2023-04-24T04:14:06;2.97;;;1.40;;
21675;SDS011;10999;51.332;9.458;2023-04-24T04:16:33;3.65;;;1.13;;
21675;SDS011;10999;51.332;9.458;2023-04-24T04:19:00;3.55;;;1.10;;
21675;SDS011;10999;51.332;9.458;2023-04-24T04:21:26;3.83;;;1.45;;
21675;SDS011;10999;51.332;9.458;2023-04-24T04:23:54;4.50;;;1.23;;
21675;SDS011;10999;51.332;9.458;2023-04-24T04:26:20;2.05;;;1.20;;
21675;SDS011;10999;51.332;9.458;2023-04-24T04:28:47;4.80;;;1.40;;
21675;SDS011;10999;51.332;9.458;2023-04-24T04:31:15;4.38;;;1.33;;
21675;SDS011;10999;51.332;9.458;2023-04-24T04:33:41;3.53;;;1.33;;
21675;SDS011;10999;51.332;9.458;2023-04-24T04:36:08;3.28;;;1.30;;
21675;SDS011;10999;51.332;9.458;2023-04-24T04:38:35;4.78;;;1.50;;
21675;SDS011;10999;51.332;9.458;2023-04-24T04:41:03;4.30;;;1.52;;
21675;SDS011;10999;51.332;9.458;2023-04-24T04:43:30;4.22;;;1.20;;
21675;SDS011;10999;51.332;9.458;2023-04-24T04:45:58;3.55;;;1.60;;
21675;SDS011;10999;51.332;9.458;2023-04-24T04:48:27;4.15;;;1.58;;
21675;SDS011;10999;51.332;9.458;2023-04-24T04:50:54;3.75;;;1.45;;
21675;SDS011;10999;51.332;9.458;2023-04-24T04:53:21;3.17;;;1.20;;
21675;SDS011;10999;51.332;9.458;2023-04-24T04:55:48;4.90;;;1.63;;
21675;SDS011;10999;51.332;9.458;2023-04-24T04:58:14;4.68;;;1.52;;
21675;SDS011;10999;51.332;9.458;2023-04-24T05:00:41;3.72;;;1.40;;
21675;SDS011;10999;51.332;9.458;2023-04-24T05:03:08;3.97;;;1.40;;
21675;SDS011;10999;51.332;9.458;2023-04-24T05:05:46;4.47;;;1.52;;
21675;SDS011;10999;51.332;9.458;2023-04-24T05:08:13;3.78;;;1.60;;
21675;SDS011;10999;51.332;9.458;2023-04-24T05:10:43;5.20;;;1.40;;
21675;SDS011;10999;51.332;9.458;2023-04-24T05:13:11;4.30;;;1.30;;
21675;SDS011;10999;51.332;9.458;2023-04-24T05:15:39;4.22;;;1.23;;
21675;SDS011;10999;51.332;9.458;2023-04-24T05:18:06;3.08;;;1.40;;
21675;SDS011;10999;51.332;9.458;2023-04-24T05:20:33;2.10;;;0.90;;
21675;SDS011;10999;51.332;9.458;2023-04-24T05:22:59;3.47;;;1.27;;
21675;SDS011;10999;51.332;9.458;2023-04-24T05:25:26;2.78;;;1.20;;
21675;SDS011;10999;51.332;9.458;2023-04-24T05:27:53;2.58;;;1.30;;
21675;SDS011;10999;51.332;9.458;2023-04-24T05:30:20;3.70;;;1.17;;
21675;SDS011;10999;51.332;9.458;2023-04-24T05:32:46;3.28;;;1.40;;
21675;SDS011;10999;51.332;9.458;2023-04-24T05:35:13;3.78;;;1.30;;
21675;SDS011;10999;51.332;9.458;2023-04-24T05:37:40;4.55;;;1.30;;
21675;SDS011;10999;51.332;9.458;2023-04-24T05:40:07;5.25;;;1.63;;
21675;SDS011;10999;51.332;9.458;2023-04-24T05:42:34;3.20;;;1.85;;
21675;SDS011;10999;51.332;9.458;2023-04-24T05:45:01;4.13;;;1.40;;
21675;SDS011;10999;51.332;9.458;2023-04-24T05:47:28;3.05;;;1.15;;
21675;SDS011;10999;51.332;9.458;2023-04-24T05:49:55;4.25;;;1.00;;
21675;SDS011;10999;51.332;9.458;2023-04-24T05:52:22;3.63;;;1.20;;
21675;SDS011;10999;51.332;9.458;2023-04-24T05:54:48;3.70;;;1.33;;
21675;SDS011;10999;51.332;9.458;2023-04-24T05:57:15;3.85;;;1.27;;
21675;SDS011;10999;51.332;9.458;2023-04-24T05:59:42;2.70;;;1.02;;
21675;SDS011;10999;51.332;9.458;2023-04-24T06:02:09;5.05;;;1.63;;
21675;SDS011;10999;51.332;9.458;2023-04-24T06:04:36;3.72;;;1.48;;
21675;SDS011;10999;51.332;9.458;2023-04-24T06:07:03;4.55;;;1.60;;
21675;SDS011;10999;51.332;9.458;2023-04-24T06:09:30;4.63;;;1.63;;
21675;SDS011;10999;51.332;9.458;2023-04-24T06:11:56;4.47;;;1.90;;
21675;SDS011;10999;51.332;9.458;2023-04-24T06:14:24;7.55;;;2.00;;
21675;SDS011;10999;51.332;9.458;2023-04-24T06:16:51;5.63;;;2.08;;
21675;SDS011;10999;51.332;9.458;2023-04-24T06:19:24;6.47;;;2.00;;
21675;SDS011;10999;51.332;9.458;2023-04-24T06:21:50;4.93;;;2.00;;
21675;SDS011;10999;51.332;9.458;2023-04-24T06:24:17;6.00;;;2.22;;
21675;SDS011;10999;51.332;9.458;2023-04-24T06:26:43;5.32;;;1.92;;
21675;SDS011;10999;51.332;9.458;2023-04-24T06:29:10;5.95;;;2.13;;
21675;SDS011;10999;51.332;9.458;2023-04-24T06:31:37;5.40;;;2.40;;
21675;SDS011;10999;51.332;9.458;2023-04-24T06:34:04;6.43;;;2.45;;
21675;SDS011;10999;51.332;9.458;2023-04-24T06:36:31;8.05;;;2.65;;
21675;SDS011;10999;51.332;9.458;2023-04-24T06:39:00;5.65;;;2.28;;
21675;SDS011;10999;51.332;9.458;2023-04-24T06:41:28;7.13;;;2.97;;
21675;SDS011;10999;51.332;9.458;2023-04-24T06:43:55;7.65;;;2.70;;
21675;SDS011;10999;51.332;9.458;2023-04-24T06:46:22;8.40;;;2.80;;
21675;SDS011;10999;51.332;9.458;2023-04-24T06:48:52;6.28;;;2.63;;
21675;SDS011;10999;51.332;9.458;2023-04-24T06:51:23;6.47;;;2.88;;
21675;SDS011;10999;51.332;9.458;2023-04-24T06:53:51;6.18;;;2.50;;
21675;SDS011;10999;51.332;9.458;2023-04-24T06:56:18;5.60;;;2.28;;
21675;SDS011;10999;51.332;9.458;2023-04-24T06:58:45;5.60;;;2.70;;
21675;SDS011;10999;51.332;9.458;2023-04-24T07:01:12;6.05;;;2.35;;
21675;SDS011;10999;51.332;9.458;2023-04-24T07:03:39;5.05;;;2.25;;
21675;SDS011;10999;51.332;9.458;2023-04-24T07:06:06;5.68;;;2.22;;
21675;SDS011;10999;51.332;9.458;2023-04-24T07:08:33;5.38;;;1.98;;
21675;SDS011;10999;51.332;9.458;2023-04-24T07:10:59;6.80;;;2.15;;
21675;SDS011;10999;51.332;9.458;2023-04-24T07:13:26;5.50;;;2.10;;
21675;SDS011;10999;51.332;9.458;2023-04-24T07:15:53;4.85;;;2.10;;
21675;SDS011;10999;51.332;9.458;2023-04-24T07:18:21;4.70;;;1.83;;
21675;SDS011;10999;51.332;9.458;2023-04-24T07:20:48;5.70;;;2.13;;
21675;SDS011;10999;51.332;9.458;2023-04-24T07:23:19;6.50;;;2.22;;
21675;SDS011;10999;51.332;9.458;2023-04-24T07:25:46;5.22;;;2.30;;
21675;SDS011;10999;51.332;9.458;2023-04-24T07:28:13;4.85;;;1.98;;
21675;SDS011;10999;51.332;9.458;2023-04-24T07:30:39;6.07;;;2.13;;
21675;SDS011;10999;51.332;9.458;2023-04-24T07:33:06;4.90;;;1.73;;
21675;SDS011;10999;51.332;9.458;2023-04-24T07:35:33;4.82;;;1.88;;
21675;SDS011;10999;51.332;9.458;2023-04-24T07:38:00;4.90;;;1.85;;
21675;SDS011;10999;51.332;9.458;2023-04-24T07:40:27;4.60;;;1.48;;
21675;SDS011;10999;51.332;9.458;2023-04-24T07:42:54;4.43;;;1.80;;
21675;SDS011;10999;51.332;9.458;2023-04-24T07:45:20;6.35;;;2.05;;
21675;SDS011;10999;51.332;9.458;2023-04-24T07:47:49;5.43;;;1.92;;
21675;SDS011;10999;51.332;9.458;2023-04-24T07:50:17;5.60;;;1.95;;
21675;SDS011;10999;51.332;9.458;2023-04-24T07:52:43;4.15;;;1.80;;
21675;SDS011;10999;51.332;9.458;2023-04-24T07:55:10;4.25;;;2.00;;
21675;SDS011;10999;51.332;9.458;2023-04-24T07:57:37;6.00;;;1.73;;
21675;SDS011;10999;51.332;9.458;2023-04-24T08:00:04;4.97;;;1.80;;
21675;SDS011;10999;51.332;9.458;2023-04-24T08:02:32;5.53;;;2.00;;
21675;SDS011;10999;51.332;9.458;2023-04-24T08:05:00;5.30;;;1.70;;
21675;SDS011;10999;51.332;9.458;2023-04-24T08:07:26;4.43;;;1.92;;
21675;SDS011;10999;51.332;9.458;2023-04-24T08:09:53;5.25;;;1.80;;
21675;SDS011;10999;51.332;9.458;2023-04-24T08:12:20;4.75;;;1.90;;
21675;SDS011;10999;51.332;9.458;2023-04-24T08:14:47;5.15;;;1.90;;
21675;SDS011;10999;51.332;9.458;2023-04-24T08:17:14;5.45;;;2.50;;
21675;SDS011;10999;51.332;9.458;2023-04-24T08:19:40;3.63;;;1.80;;
21675;SDS011;10999;51.332;9.458;2023-04-24T08:22:16;4.45;;;1.90;;
21675;SDS011;10999;51.332;9.458;2023-04-24T08:24:43;6.43;;;1.70;;
21675;SDS011;10999;51.332;9.458;2023-04-24T08:27:10;6.13;;;2.03;;
21675;SDS011;10999;51.332;9.458;2023-04-24T08:29:37;4.38;;;1.98;;
21675;SDS011;10999;51.332;9.458;2023-04-24T08:32:03;5.28;;;1.88;;
21675;SDS011;10999;51.332;9.458;2023-04-24T08:34:30;4.88;;;2.05;;
21675;SDS011;10999;51.332;9.458;2023-04-24T08:36:57;5.70;;;2.17;;
21675;SDS011;10999;51.332;9.458;2023-04-24T08:39:24;4.25;;;1.83;;
21675;SDS011;10999;51.332;9.458;2023-04-24T08:41:50;7.78;;;2.20;;
21675;SDS011;10999;51.332;9.458;2023-04-24T08:44:21;5.97;;;2.00;;
21675;SDS011;10999;51.332;9.458;2023-04-24T08:46:48;5.13;;;1.90;;
21675;SDS011;10999;51.332;9.458;2023-04-24T08:49:15;5.72;;;2.00;;
21675;SDS011;10999;51.332;9.458;2023-04-24T08:51:42;5.60;;;1.83;;
21675;SDS011;10999;51.332;9.458;2023-04-24T08:54:11;5.25;;;2.20;;
21675;SDS011;10999;51.332;9.458;2023-04-24T08:56:38;5.05;;;2.03;;
21675;SDS011;10999;51.332;9.458;2023-04-24T08:59:06;6.57;;;1.95;;
21675;SDS011;10999;51.332;9.458;2023-04-24T09:01:33;4.75;;;1.80;;
21675;SDS011;10999;51.332;9.458;2023-04-24T09:04:03;6.30;;;1.95;;
21675;SDS011;10999;51.332;9.458;2023-04-24T09:06:30;4.40;;;2.10;;
21675;SDS011;10999;51.332;9.458;2023-04-24T09:09:01;5.53;;;1.83;;
21675;SDS011;10999;51.332;9.458;2023-04-24T09:11:30;4.68;;;1.58;;
21675;SDS011;10999;51.332;9.458;2023-04-24T09:13:58;3.42;;;1.52;;
21675;SDS011;10999;51.332;9.458;2023-04-24T09:16:26;6.90;;;1.52;;
21675;SDS011;10999;51.332;9.458;2023-04-24T09:18:55;4.95;;;1.50;;
21675;SDS011;10999;51.332;9.458;2023-04-24T09:21:22;5.18;;;1.98;;
21675;SDS011;10999;51.332;9.458;2023-04-24T09:23:59;4.30;;;2.03;;
21675;SDS011;10999;51.332;9.458;2023-04-24T09:26:36;5.05;;;1.95;;
21675;SDS011;10999;51.332;9.458;2023-04-24T09:29:03;4.75;;;1.88;;
21675;SDS011;10999;51.332;9.458;2023-04-24T09:31:31;3.85;;;1.40;;
21675;SDS011;10999;51.332;9.458;2023-04-24T09:33:59;3.83;;;1.55;;
21675;SDS011;10999;51.332;9.458;2023-04-24T09:36:37;4.05;;;1.52;;
21675;SDS011;10999;51.332;9.458;2023-04-24T09:39:07;3.45;;;1.45;;
21675;SDS011;10999;51.332;9.458;2023-04-24T09:41:53;5.55;;;1.67;;
21675;SDS011;10999;51.332;9.458;2023-04-24T09:44:24;5.93;;;1.67;;
21675;SDS011;10999;51.332;9.458;2023-04-24T09:46:56;4.43;;;1.52;;
21675;SDS011;10999;51.332;9.458;2023-04-24T09:49:27;3.80;;;1.58;;
21675;SDS011;10999;51.332;9.458;2023-04-24T09:52:09;4.93;;;1.50;;
21675;SDS011;10999;51.332;9.458;2023-04-24T09:54:37;3.63;;;1.42;;
21675;SDS011;10999;51.332;9.458;2023-04-24T09:57:04;4.78;;;1.30;;
21675;SDS011;10999;51.332;9.458;2023-04-24T09:59:34;6.28;;;1.90;;
21675;SDS011;10999;51.332;9.458;2023-04-24T10:02:02;2.13;;;1.20;;
21675;SDS011;10999;51.332;9.458;2023-04-24T10:04:53;2.47;;;1.08;;
21675;SDS011;10999;51.332;9.458;2023-04-24T10:07:22;2.97;;;1.00;;
21675;SDS011;10999;51.332;9.458;2023-04-24T10:09:52;2.63;;;0.90;;
21675;SDS011;10999;51.332;9.458;2023-04-24T10:12:19;3.03;;;1.20;;
21675;SDS011;10999;51.332;9.458;2023-04-24T10:14:47;2.70;;;1.02;;
21675;SDS011;10999;51.332;9.458;2023-04-24T10:17:14;2.08;;;0.90;;
21675;SDS011;10999;51.332;9.458;2023-04-24T10:19:41;4.40;;;1.33;;
21675;SDS011;10999;51.332;9.458;2023-04-24T10:22:10;2.78;;;1.02;;
21675;SDS011;10999;51.332;9.458;2023-04-24T10:24:37;2.65;;;1.10;;
21675;SDS011;10999;51.332;9.458;2023-04-24T10:27:05;2.55;;;0.98;;
21675;SDS011;10999;51.332;9.458;2023-04-24T10:29:32;2.28;;;0.98;;
21675;SDS011;10999;51.332;9.458;2023-04-24T10:32:01;2.28;;;0.70;;
21675;SDS011;10999;51.332;9.458;2023-04-24T10:34:28;2.60;;;0.95;;
21675;SDS011;10999;51.332;9.458;2023-04-24T10:36:55;3.90;;;1.20;;
21675;SDS011;10999;51.332;9.458;2023-04-24T10:39:23;2.00;;;1.08;;
21675;SDS011;10999;51.332;9.458;2023-04-24T10:41:53;3.70;;;1.35;;
21675;SDS011;10999;51.332;9.458;2023-04-24T10:44:23;2.03;;;0.93;;
21675;SDS011;10999;51.332;9.458;2023-04-24T10:46:54;3.35;;;1.20;;
21675;SDS011;10999;51.332;9.458;2023-04-24T10:49:29;2.60;;;0.98;;
21675;SDS011;10999;51.332;9.458;2023-04-24T10:52:01;3.50;;;1.75;;
21675;SDS011;10999;51.332;9.458;2023-04-24T10:54:36;3.30;;;1.20;;
21675;SDS011;10999;51.332;9.458;2023-04-24T10:59:49;2.70;;;1.30;;
21675;SDS011;10999;51.332;9.458;2023-04-24T11:02:18;2.25;;;0.80;;
21675;SDS011;10999;51.332;9.458;2023-04-24T11:05:04;2.53;;;0.63;;
21675;SDS011;10999;51.332;9.458;2023-04-24T11:11:01;1.60;;;0.73;;
21675;SDS011;10999;51.332;9.458;2023-04-24T11:18:59;1.80;;;0.63;;
21675;SDS011;10999;51.332;9.458;2023-04-24T11:21:46;2.00;;;0.70;;
21675;SDS011;10999;51.332;9.458;2023-04-24T11:24:23;1.42;;;0.40;;
21675;SDS011;10999;51.332;9.458;2023-04-24T11:29:51;0.47;;;0.10;;
21675;SDS011;10999;51.332;9.458;2023-04-24T11:37:50;0.17;;;0.08;;
21675;SDS011;10999;51.332;9.458;2023-04-24T11:40:22;0.50;;;0.20;;
21675;SDS011;10999;51.332;9.458;2023-04-24T11:42:50;0.20;;;0.10;;
21675;SDS011;10999;51.332;9.458;2023-04-24T11:45:22;0.10;;;0.10;;
21675;SDS011;10999;51.332;9.458;2023-04-24T11:47:50;0.80;;;0.20;;
21675;SDS011;10999;51.332;9.458;2023-04-24T11:50:18;0.15;;;0.10;;
21675;SDS011;10999;51.332;9.458;2023-04-24T11:52:46;0.32;;;0.20;;
21675;SDS011;10999;51.332;9.458;2023-04-24T11:57:44;0.03;;;0.00;;
21675;SDS011;10999;51.332;9.458;2023-04-24T12:00:15;0.20;;;0.20;;
21675;SDS011;10999;51.332;9.458;2023-04-24T12:02:45;0.98;;;0.20;;
21675;SDS011;10999;51.332;9.458;2023-04-24T12:05:23;0.17;;;0.17;;
21675;SDS011;10999;51.332;9.458;2023-04-24T12:07:51;0.43;;;0.10;;
21675;SDS011;10999;51.332;9.458;2023-04-24T12:10:25;0.10;;;0.10;;
21675;SDS011;10999;51.332;9.458;2023-04-24T12:12:54;0.80;;;0.20;;
21675;SDS011;10999;51.332;9.458;2023-04-24T12:15:23;0.40;;;0.20;;
21675;SDS011;10999;51.332;9.458;2023-04-24T12:17:51;2.08;;;0.20;;
21675;SDS011;10999;51.332;9.458;2023-04-24T12:20:24;0.20;;;0.10;;
21675;SDS011;10999;51.332;9.458;2023-04-24T12:22:59;0.20;;;0.10;;
21675;SDS011;10999;51.332;9.458;2023-04-24T12:25:32;0.10;;;0.10;;
21675;SDS011;10999;51.332;9.458;2023-04-24T12:30:31;0.00;;;0.00;;
21675;SDS011;10999;51.332;9.458;2023-04-24T12:32:59;0.08;;;0.08;;
21675;SDS011;10999;51.332;9.458;2023-04-24T12:35:29;0.47;;;0.15;;
21675;SDS011;10999;51.332;9.458;2023-04-24T12:38:13;0.32;;;0.10;;
21675;SDS011;10999;51.332;9.458;2023-04-24T12:40:42;0.08;;;0.00;;
21675;SDS011;10999;51.332;9.458;2023-04-24T12:43:13;1.55;;;0.30;;
21675;SDS011;10999;51.332;9.458;2023-04-24T12:45:47;0.20;;;0.10;;
21675;SDS011;10999;51.332;9.458;2023-04-24T12:48:14;0.30;;;0.10;;
21675;SDS011;10999;51.332;9.458;2023-04-24T12:50:41;0.30;;;0.00;;
21675;SDS011;10999;51.332;9.458;2023-04-24T12:53:12;1.25;;;0.22;;
21675;SDS011;10999;51.332;9.458;2023-04-24T12:55:39;0.10;;;0.10;;
21675;SDS011;10999;51.332;9.458;2023-04-24T12:58:06;0.00;;;0.00;;
21675;SDS011;10999;51.332;9.458;2023-04-24T13:00:33;0.55;;;0.03;;
21675;SDS011;10999;51.332;9.458;2023-04-24T13:03:00;0.52;;;0.00;;
21675;SDS011;10999;51.332;9.458;2023-04-24T13:05:27;0.00;;;0.00;;
21675;SDS011;10999;51.332;9.458;2023-04-24T13:07:54;0.03;;;0.00;;
21675;SDS011;10999;51.332;9.458;2023-04-24T13:10:21;0.30;;;0.10;;
21675;SDS011;10999;51.332;9.458;2023-04-24T13:12:47;0.10;;;0.10;;
21675;SDS011;10999;51.332;9.458;2023-04-24T13:15:14;0.08;;;0.00;;
21675;SDS011;10999;51.332;9.458;2023-04-24T13:17:41;0.57;;;0.08;;
21675;SDS011;10999;51.332;9.458;2023-04-24T13:20:08;0.20;;;0.10;;
21675;SDS011;10999;51.332;9.458;2023-04-24T13:22:35;0.32;;;0.10;;
21675;SDS011;10999;51.332;9.458;2023-04-24T13:25:02;0.13;;;0.10;;
21675;SDS011;10999;51.332;9.458;2023-04-24T13:27:32;0.82;;;0.20;;
21675;SDS011;10999;51.332;9.458;2023-04-24T13:29:59;1.08;;;0.20;;
21675;SDS011;10999;51.332;9.458;2023-04-24T13:32:26;0.30;;;0.22;;
21675;SDS011;10999;51.332;9.458;2023-04-24T13:34:54;0.40;;;0.10;;
21675;SDS011;10999;51.332;9.458;2023-04-24T13:37:22;1.02;;;0.32;;
21675;SDS011;10999;51.332;9.458;2023-04-24T13:39:49;0.32;;;0.17;;
21675;SDS011;10999;51.332;9.458;2023-04-24T13:42:17;1.65;;;0.20;;
21675;SDS011;10999;51.332;9.458;2023-04-24T13:44:44;0.68;;;0.20;;
21675;SDS011;10999;51.332;9.458;2023-04-24T13:47:11;0.15;;;0.10;;
21675;SDS011;10999;51.332;9.458;2023-04-24T13:49:38;0.60;;;0.20;;
21675;SDS011;10999;51.332;9.458;2023-04-24T13:52:05;0.70;;;0.20;;
21675;SDS011;10999;51.332;9.458;2023-04-24T13:54:31;1.77;;;0.38;;
21675;SDS011;10999;51.332;9.458;2023-04-24T13:56:58;0.40;;;0.30;;
21675;SDS011;10999;51.332;9.458;2023-04-24T13:59:26;0.82;;;0.43;;
21675;SDS011;10999;51.332;9.458;2023-04-24T14:01:53;0.70;;;0.30;;
21675;SDS011;10999;51.332;9.458;2023-04-24T14:04:20;0.57;;;0.40;;
21675;SDS011;10999;51.332;9.458;2023-04-24T14:06:47;0.40;;;0.38;;
21675;SDS011;10999;51.332;9.458;2023-04-24T14:09:14;1.75;;;0.68;;
21675;SDS011;10999;51.332;9.458;2023-04-24T14:11:41;1.08;;;0.50;;
21675;SDS011;10999;51.332;9.458;2023-04-24T14:14:08;0.65;;;0.30;;
21675;SDS011;10999;51.332;9.458;2023-04-24T14:16:34;0.60;;;0.30;;
21675;SDS011;10999;51.332;9.458;2023-04-24T14:19:01;1.85;;;0.50;;
21675;SDS011;10999;51.332;9.458;2023-04-24T14:21:28;1.50;;;0.50;;
21675;SDS011;10999;51.332;9.458;2023-04-24T14:23:56;1.30;;;0.57;;
21675;SDS011;10999;51.332;9.458;2023-04-24T14:26:22;1.33;;;0.63;;
21675;SDS011;10999;51.332;9.458;2023-04-24T14:28:50;1.23;;;0.70;;
21675;SDS011;10999;51.332;9.458;2023-04-24T14:31:23;1.90;;;0.80;;
21675;SDS011;10999;51.332;9.458;2023-04-24T14:33:49;2.28;;;1.05;;
21675;SDS011;10999;51.332;9.458;2023-04-24T14:36:16;2.35;;;1.25;;
21675;SDS011;10999;51.332;9.458;2023-04-24T14:38:43;2.55;;;0.90;;
21675;SDS011;10999;51.332;9.458;2023-04-24T14:41:10;3.67;;;1.33;;
21675;SDS011;10999;51.332;9.458;2023-04-24T14:43:39;3.88;;;1.27;;
21675;SDS011;10999;51.332;9.458;2023-04-24T14:46:06;3.80;;;1.08;;
21675;SDS011;10999;51.332;9.458;2023-04-24T14:48:33;3.45;;;1.15;;
21675;SDS011;10999;51.332;9.458;2023-04-24T14:51:00;2.78;;;1.50;;
21675;SDS011;10999;51.332;9.458;2023-04-24T14:53:26;6.22;;;1.60;;
21675;SDS011;10999;51.332;9.458;2023-04-24T14:55:53;3.53;;;1.10;;
21675;SDS011;10999;51.332;9.458;2023-04-24T14:58:20;4.05;;;1.45;;
21675;SDS011;10999;51.332;9.458;2023-04-24T15:00:47;3.90;;;1.35;;
21675;SDS011;10999;51.332;9.458;2023-04-24T15:03:16;5.40;;;1.85;;
21675;SDS011;10999;51.332;9.458;2023-04-24T15:05:44;3.90;;;1.50;;
21675;SDS011;10999;51.332;9.458;2023-04-24T15:08:11;6.10;;;1.73;;
21675;SDS011;10999;51.332;9.458;2023-04-24T15:10:37;5.70;;;1.60;;
21675;SDS011;10999;51.332;9.458;2023-04-24T15:13:04;6.60;;;1.67;;
21675;SDS011;10999;51.332;9.458;2023-04-24T15:15:31;4.45;;;1.52;;
21675;SDS011;10999;51.332;9.458;2023-04-24T15:17:58;5.15;;;1.65;;